Rankings de siempre
Mejores tiempos personales válidos de equipo a través de todos los eventos y temporadas. Cada equipo aparece una vez por división.
Busca por nombre y abre la página donde está clasificado este récord de división.
135,116 equipos clasificados
| Pos. | Pos. AG | Equipo | Nacionalidad | Categoría de edad | TiempoMejor tiempo | Diferencia |
|---|---|---|---|---|---|---|
| 8876 | #3661 | Alice Rettie & Andrew AoukarAUS · X 30-34 · AG #3661 | AUS | X 30-34 | 1:06:23 | +17:10 |
| 8877 | -- | Kyle PATERSON & Lauren ROBISONGBR · X XU29 | GBR | X XU29 | 1:06:23 | +17:10 |
| 8878 | -- | Louis Morris & Kara LawrensonGBR · X XU29 | GBR | X XU29 | 1:06:23 | +17:10 |
| 8879 | #861 | Stephen Fitchett & Siobhan WilsonGBR · X 40-44 · AG #861 | GBR | X 40-44 | 1:06:23 | +17:10 |
| 8880 | #862 | John Henderson & Claudia WilsonGBR · X 40-44 · AG #862 | GBR | X 40-44 | 1:06:23 | +17:10 |
| 8881 | -- | Daniela Finkenzeller & David KrampGER · X XU29 | GER | X XU29 | 1:06:23 | +17:10 |
| 8882 | #3662 | Benjamin Adriani & Shima SalimianGER · X 30-34 · AG #3662 | GER | X 30-34 | 1:06:23 | +17:10 |
| 8883 | #3653 | Marcel Köppler & Alisa SchmittGER · X 30-34 · AG #3653 | GER | X 30-34 | 1:06:23 | +17:10 |
| 8884 | #73 | Myles Mcnulty & Martina GoerzX 50-54 · AG #73 | -- | X 50-54 | 1:06:23 | +17:10 |
| 8885 | #101 | Sarah Pörschmann & Thomas ValtlGER · X 30-39 · AG #101 | GER | X 30-39 | 1:06:23 | +17:10 |
| 8886 | #193 | Brian Rutter & Faye GrouwstraGBR · X 45-49 · AG #193 | GBR | X 45-49 | 1:06:23 | +17:10 |
| 8887 | #1611 | Lance Hermanstein & Kya HammertonGBR · X 25-29 · AG #1611 | GBR | X 25-29 | 1:06:23 | +17:10 |
| 8888 | #1612 | Ethan Le Fevre & Brittany NgX 25-29 · AG #1612 | -- | X 25-29 | 1:06:23 | +17:10 |
| 8889 | #194 | Natalia Maas & Greg NicholsGBR · X 45-49 · AG #194 | GBR | X 45-49 | 1:06:23 | +17:10 |
| 8890 | #1613 | Lea Mehle & Vid MehleSLO · X 25-29 · AG #1613 | SLO | X 25-29 | 1:06:23 | +17:10 |
| 8891 | #1614 | Loreen Kocjan & Yannick SchmitzGER · X 25-29 · AG #1614 | GER | X 25-29 | 1:06:23 | +17:10 |
| 8892 | #863 | Holly Jenkins & Richard PriceGBR · X 40-44 · AG #863 | GBR | X 40-44 | 1:06:23 | +17:10 |
| 8893 | #3663 | Marco Grübl & Salina WiedmannGER · X 30-34 · AG #3663 | GER | X 30-34 | 1:06:24 | +17:11 |
| 8894 | #3664 | Scott Katzenstein & Chevy JohnX 30-34 · AG #3664 | -- | X 30-34 | 1:06:24 | +17:11 |
| 8895 | #3665 | Ben Coull & Zoë Fettig-WinnX 30-34 · AG #3665 | -- | X 30-34 | 1:06:24 | +17:11 |
| 8896 | #3666 | Lotte Prak & Roan BergmanNED · X 30-34 · AG #3666 | NED | X 30-34 | 1:06:24 | +17:11 |
| 8897 | #1615 | Kiera Bishop & Josh BishopGBR · X 25-29 · AG #1615 | GBR | X 25-29 | 1:06:24 | +17:11 |
| 8898 | #3667 | Mathilde Duport Mancini & Alexy GarciaFRA · X 30-34 · AG #3667 | FRA | X 30-34 | 1:06:24 | +17:11 |
| 8899 | #1048 | Rebecca O’Maison & Linas PaulikasX 35-39 · AG #1048 | -- | X 35-39 | 1:06:24 | +17:11 |
| 8900 | #866 | Stephanie Gamard & Sylvain GamardX 40-44 · AG #866 | -- | X 40-44 | 1:06:24 | +17:11 |
Página 356 de 5,405